createdAt,value
2018-01-29T00:00:39.407Z,7.17
2018-01-29T00:01:40.690Z,7.15
2018-01-29T00:02:40.043Z,7.15
2018-01-29T00:03:40.436Z,7.16
2018-01-29T00:04:39.894Z,7.17
2018-01-29T00:05:39.890Z,7.16
2018-01-29T00:06:39.951Z,7.17
2018-01-29T00:07:39.446Z,7.17
2018-01-29T00:08:40.182Z,7.18
2018-01-29T00:09:40.082Z,7.18
2018-01-29T00:10:39.484Z,7.19
2018-01-29T00:11:39.994Z,7.2
2018-01-29T00:12:39.901Z,7.19
2018-01-29T00:13:39.507Z,7.18
2018-01-29T00:14:39.503Z,7.2
2018-01-29T00:15:39.470Z,7.21
2018-01-29T00:16:39.893Z,7.21
2018-01-29T00:17:41.060Z,7.21
2018-01-29T00:18:40.566Z,7.22
2018-01-29T00:19:39.795Z,7.2
2018-01-29T00:20:40.001Z,7.19
2018-01-29T00:21:39.494Z,7.2
2018-01-29T00:22:39.906Z,7.21
2018-01-29T00:23:40.630Z,7.2
2018-01-29T00:24:39.377Z,7.21
2018-01-29T00:25:39.301Z,7.21
2018-01-29T00:26:39.357Z,7.2
2018-01-29T00:27:39.482Z,7.21
2018-01-29T00:28:39.725Z,7.21
2018-01-29T00:29:39.687Z,7.2
2018-01-29T00:30:38.484Z,7.2
2018-01-29T00:31:39.067Z,7.19
2018-01-29T00:32:38.365Z,7.18
2018-01-29T00:33:39.336Z,7.19
2018-01-29T00:34:38.380Z,7.19
2018-01-29T00:35:39.095Z,7.18
2018-01-29T00:36:40.124Z,7.2
2018-01-29T00:37:38.557Z,7.19
2018-01-29T00:38:39.849Z,7.19
2018-01-29T00:39:38.384Z,7.19
2018-01-29T00:40:39.911Z,7.18
2018-01-29T00:41:40.075Z,7.19
2018-01-29T00:42:38.602Z,7.18
2018-01-29T00:43:38.616Z,7.2
2018-01-29T00:44:39.968Z,7.19
2018-01-29T00:45:41.064Z,7.18
2018-01-29T00:46:40.926Z,7.19
2018-01-29T00:47:38.324Z,7.19
2018-01-29T00:48:39.860Z,7.19
2018-01-29T00:49:39.888Z,7.19
2018-01-29T00:50:38.962Z,7.19
2018-01-29T00:51:39.028Z,7.19
2018-01-29T00:52:38.344Z,7.18
2018-01-29T00:53:38.801Z,7.18
2018-01-29T00:54:39.494Z,7.2
2018-01-29T00:55:38.436Z,7.17
2018-01-29T00:56:39.000Z,7.18
2018-01-29T00:57:38.469Z,7.17
2018-01-29T00:58:38.574Z,7.17
2018-01-29T00:59:40.516Z,7.17
2018-01-29T01:00:39.058Z,7.19
2018-01-29T01:01:39.822Z,7.17
2018-01-29T01:02:38.673Z,7.17
2018-01-29T01:03:38.227Z,7.17
2018-01-29T01:04:38.351Z,7.18
2018-01-29T01:05:39.022Z,7.17
2018-01-29T01:06:38.405Z,7.18
2018-01-29T01:07:38.430Z,7.17
2018-01-29T01:08:38.449Z,7.17
2018-01-29T01:09:38.368Z,7.16
2018-01-29T01:10:38.933Z,7.16
2018-01-29T01:11:39.099Z,7.16
2018-01-29T01:12:38.377Z,7.15
2018-01-29T01:13:38.516Z,7.16
2018-01-29T01:14:39.396Z,7.16
2018-01-29T01:15:38.489Z,7.15
2018-01-29T01:16:38.337Z,7.14
2018-01-29T01:17:40.604Z,7.15
2018-01-29T01:18:38.301Z,7.15
2018-01-29T01:19:40.749Z,7.15
2018-01-29T01:20:39.255Z,7.15
2018-01-29T01:21:39.736Z,7.15
2018-01-29T01:22:39.908Z,7.14
2018-01-29T01:23:40.009Z,7.15
2018-01-29T01:24:38.938Z,7.14
2018-01-29T01:25:38.432Z,7.15
2018-01-29T01:26:41.103Z,7.13
2018-01-29T01:27:39.354Z,7.13
2018-01-29T01:28:39.590Z,7.15
2018-01-29T01:29:38.352Z,7.14
2018-01-29T01:30:38.917Z,7.15
2018-01-29T01:31:39.728Z,7.14
2018-01-29T01:32:38.445Z,7.14
2018-01-29T01:33:39.030Z,7.14
2018-01-29T01:34:38.238Z,7.13
2018-01-29T01:35:38.477Z,7.13
2018-01-29T01:36:40.488Z,7.14
2018-01-29T01:37:39.992Z,7.15
2018-01-29T01:38:39.066Z,7.13
2018-01-29T01:39:38.508Z,7.13
2018-01-29T01:40:39.296Z,7.13
2018-01-29T01:41:39.491Z,7.13
2018-01-29T01:42:39.629Z,7.14
2018-01-29T01:43:38.375Z,7.13
2018-01-29T01:44:38.713Z,7.13
2018-01-29T01:45:39.161Z,7.13
2018-01-29T01:46:38.678Z,7.14
2018-01-29T01:47:38.389Z,7.15
2018-01-29T01:48:39.396Z,7.14
2018-01-29T01:49:38.529Z,7.14
2018-01-29T01:50:38.999Z,7.14
2018-01-29T01:51:38.391Z,7.14
2018-01-29T01:52:38.609Z,7.15
2018-01-29T01:53:38.610Z,7.15
2018-01-29T01:54:38.361Z,7.16
2018-01-29T01:55:39.039Z,7.15
2018-01-29T01:56:38.440Z,7.15
2018-01-29T01:57:38.319Z,7.15
2018-01-29T01:58:38.463Z,7.17
2018-01-29T01:59:39.170Z,7.18
2018-01-29T02:00:38.597Z,7.18
2018-01-29T02:01:40.149Z,7.17
2018-01-29T02:02:38.630Z,7.18
2018-01-29T02:03:39.604Z,7.18
2018-01-29T02:04:39.179Z,7.18
2018-01-29T02:05:38.491Z,7.19
2018-01-29T02:06:39.077Z,7.19
2018-01-29T02:07:38.342Z,7.19
2018-01-29T02:08:39.400Z,7.2
2018-01-29T02:09:39.204Z,7.2
2018-01-29T02:10:38.393Z,7.21
2018-01-29T02:11:38.431Z,7.21
2018-01-29T02:12:42.014Z,7.21
2018-01-29T02:13:40.596Z,7.21
2018-01-29T02:14:38.456Z,7.22
2018-01-29T02:15:39.756Z,7.22
2018-01-29T02:16:39.251Z,7.21
2018-01-29T02:17:40.147Z,7.23
2018-01-29T02:18:39.237Z,7.23
2018-01-29T02:19:38.528Z,7.23
2018-01-29T02:20:38.945Z,7.24
2018-01-29T02:21:39.258Z,7.24
2018-01-29T02:22:39.142Z,7.24
2018-01-29T02:23:39.329Z,7.24
2018-01-29T02:24:39.244Z,7.24
2018-01-29T02:25:39.029Z,7.25
2018-01-29T02:26:40.374Z,7.24
2018-01-29T02:27:39.069Z,7.24
2018-01-29T02:28:40.267Z,7.24
2018-01-29T02:29:39.134Z,7.23
2018-01-29T02:30:38.690Z,7.23
2018-01-29T02:31:38.576Z,7.23
2018-01-29T02:32:39.488Z,7.25
2018-01-29T02:33:38.585Z,7.26
2018-01-29T02:34:40.204Z,7.25
2018-01-29T02:35:39.026Z,7.25
2018-01-29T02:36:39.857Z,7.26
2018-01-29T02:37:39.547Z,7.25
2018-01-29T02:38:38.442Z,7.25
2018-01-29T02:39:38.639Z,7.25
2018-01-29T02:40:39.238Z,7.25
2018-01-29T02:41:39.198Z,7.23
2018-01-29T02:42:39.364Z,7.25
2018-01-29T02:43:39.433Z,7.24
2018-01-29T02:44:39.375Z,7.24
2018-01-29T02:45:39.619Z,7.24
2018-01-29T02:46:40.271Z,7.24
2018-01-29T02:47:40.324Z,7.25
2018-01-29T02:48:38.476Z,7.24
2018-01-29T02:49:38.515Z,7.24
2018-01-29T02:50:38.549Z,7.24
2018-01-29T02:51:38.541Z,7.25
2018-01-29T02:52:38.671Z,7.25
2018-01-29T02:53:38.710Z,7.24
2018-01-29T02:54:38.692Z,7.25
2018-01-29T02:55:39.235Z,7.25
2018-01-29T02:56:40.266Z,7.24
2018-01-29T02:57:39.485Z,7.24
2018-01-29T02:58:40.037Z,7.26
2018-01-29T02:59:38.605Z,7.25
2018-01-29T03:00:39.309Z,7.26
2018-01-29T03:01:38.568Z,7.25
2018-01-29T03:02:38.653Z,7.26
2018-01-29T03:03:39.755Z,7.26
2018-01-29T03:04:38.686Z,7.26
2018-01-29T03:05:39.372Z,7.26
2018-01-29T03:06:39.353Z,7.26
2018-01-29T03:07:38.570Z,7.27
2018-01-29T03:08:38.342Z,7.25
2018-01-29T03:09:38.735Z,7.27
2018-01-29T03:10:38.623Z,7.25
2018-01-29T03:11:38.371Z,7.26
2018-01-29T03:12:38.584Z,7.26
2018-01-29T03:13:38.398Z,7.25
2018-01-29T03:14:38.936Z,7.26
2018-01-29T03:15:39.581Z,7.26
2018-01-29T03:16:39.617Z,7.26
2018-01-29T03:17:39.184Z,7.27
2018-01-29T03:18:39.243Z,7.26
2018-01-29T03:19:38.531Z,7.26
2018-01-29T03:20:38.667Z,7.25
2018-01-29T03:21:38.728Z,7.27
2018-01-29T03:22:40.458Z,7.26
2018-01-29T03:23:38.396Z,7.27
2018-01-29T03:24:38.506Z,7.29
2018-01-29T03:25:38.788Z,7.26
2018-01-29T03:26:40.567Z,7.27
2018-01-29T03:27:38.637Z,7.28
2018-01-29T03:28:39.066Z,7.28
2018-01-29T03:29:40.113Z,7.29
2018-01-29T03:30:38.796Z,7.29
2018-01-29T03:31:39.196Z,7.29
2018-01-29T03:32:39.489Z,7.28
2018-01-29T03:33:38.655Z,7.3
2018-01-29T03:34:38.438Z,7.29
2018-01-29T03:35:39.664Z,7.29
2018-01-29T03:36:38.756Z,7.29
2018-01-29T03:37:39.428Z,7.29
2018-01-29T03:38:38.652Z,7.29
2018-01-29T03:39:39.880Z,7.29
2018-01-29T03:40:39.411Z,7.28
2018-01-29T03:41:38.477Z,7.29
2018-01-29T03:42:41.167Z,7.29
2018-01-29T03:43:38.483Z,7.3
2018-01-29T03:44:38.501Z,7.28
2018-01-29T03:45:39.275Z,7.29
2018-01-29T03:46:38.380Z,7.28
2018-01-29T03:47:38.573Z,7.3
2018-01-29T03:48:38.744Z,7.3
2018-01-29T03:49:38.677Z,7.3
2018-01-29T03:50:38.767Z,7.3
2018-01-29T03:51:39.345Z,7.32
2018-01-29T03:52:40.048Z,7.32
2018-01-29T03:53:40.651Z,7.32
2018-01-29T03:54:39.296Z,7.32
2018-01-29T03:55:38.949Z,7.33
2018-01-29T03:56:39.455Z,7.31
2018-01-29T03:57:38.730Z,7.31
2018-01-29T03:58:38.984Z,7.33
2018-01-29T03:59:39.521Z,7.33
2018-01-29T04:00:38.753Z,7.32
2018-01-29T04:01:39.472Z,7.32
2018-01-29T04:02:39.589Z,7.32
2018-01-29T04:03:38.694Z,7.34
2018-01-29T04:04:39.160Z,7.33
2018-01-29T04:05:39.458Z,7.33
2018-01-29T04:06:39.542Z,7.32
2018-01-29T04:07:39.494Z,7.32
2018-01-29T04:08:38.759Z,7.32
2018-01-29T04:09:38.560Z,7.34
2018-01-29T04:10:39.561Z,7.33
2018-01-29T04:11:38.752Z,7.33
2018-01-29T04:12:39.372Z,7.32
2018-01-29T04:13:38.751Z,7.33
2018-01-29T04:14:39.315Z,7.32
2018-01-29T04:15:38.561Z,7.32
2018-01-29T04:16:39.499Z,7.32
2018-01-29T04:17:39.432Z,7.31
2018-01-29T04:18:39.493Z,7.33
2018-01-29T04:19:40.049Z,7.31
2018-01-29T04:20:38.739Z,7.3
2018-01-29T04:21:38.719Z,7.29
2018-01-29T04:22:40.972Z,7.3
2018-01-29T04:23:38.719Z,7.29
2018-01-29T04:24:38.538Z,7.29
2018-01-29T04:25:39.052Z,7.29
2018-01-29T04:26:38.627Z,7.3
2018-01-29T04:27:39.192Z,7.3
2018-01-29T04:28:38.609Z,7.29
2018-01-29T04:29:38.723Z,7.29
2018-01-29T04:30:38.831Z,7.29
2018-01-29T04:31:39.843Z,7.29
2018-01-29T04:32:40.010Z,7.28
2018-01-29T04:33:38.677Z,7.3
2018-01-29T04:34:41.277Z,7.28
2018-01-29T04:35:38.953Z,7.29
2018-01-29T04:36:38.632Z,7.28
2018-01-29T04:37:39.405Z,7.28
2018-01-29T04:38:39.239Z,7.3
2018-01-29T04:39:39.239Z,7.28
2018-01-29T04:40:40.065Z,7.27
2018-01-29T04:41:38.730Z,7.27
2018-01-29T04:42:38.928Z,7.27
2018-01-29T04:43:41.412Z,7.27
2018-01-29T04:44:38.810Z,7.26
2018-01-29T04:45:39.375Z,7.26
2018-01-29T04:46:39.437Z,7.26
2018-01-29T04:47:39.228Z,7.27
2018-01-29T04:48:38.699Z,7.26
2018-01-29T04:49:38.564Z,7.26
2018-01-29T04:50:40.958Z,7.26
2018-01-29T04:51:38.873Z,7.25
2018-01-29T04:52:38.661Z,7.26
2018-01-29T04:53:39.530Z,7.25
2018-01-29T04:54:39.779Z,7.26
2018-01-29T04:55:39.214Z,7.25
2018-01-29T04:56:38.893Z,7.26
2018-01-29T04:57:40.769Z,7.27
2018-01-29T04:58:40.216Z,7.26
2018-01-29T04:59:40.180Z,7.24
2018-01-29T05:00:39.513Z,7.25
2018-01-29T05:01:38.766Z,7.25
2018-01-29T05:02:38.845Z,7.24
2018-01-29T05:03:39.401Z,7.25
2018-01-29T05:04:39.530Z,7.25
2018-01-29T05:05:38.707Z,7.26
2018-01-29T05:06:43.009Z,7.26
2018-01-29T05:07:39.822Z,7.24
2018-01-29T05:08:38.656Z,7.25
2018-01-29T05:09:38.708Z,7.25
2018-01-29T05:10:39.786Z,7.25
2018-01-29T05:11:39.360Z,7.25
2018-01-29T05:15:39.539Z,7.26
2018-01-29T05:16:39.443Z,7.25
2018-01-29T05:17:39.454Z,7.25
2018-01-29T05:18:38.716Z,7.24
2018-01-29T05:19:40.864Z,7.24
2018-01-29T05:20:38.683Z,7.24
2018-01-29T05:21:38.702Z,7.24
2018-01-29T05:22:38.503Z,7.23
2018-01-29T05:23:39.994Z,7.24
2018-01-29T05:24:39.717Z,7.24
2018-01-29T05:25:39.446Z,7.23
2018-01-29T05:26:39.453Z,7.25
2018-01-29T05:27:39.327Z,7.25
2018-01-29T05:28:38.684Z,7.26
2018-01-29T05:29:40.111Z,7.25
2018-01-29T05:30:38.892Z,7.25
2018-01-29T05:31:40.845Z,7.24
2018-01-29T05:32:39.172Z,7.24
2018-01-29T05:33:39.440Z,7.25
2018-01-29T05:34:38.863Z,7.23
2018-01-29T05:35:38.746Z,7.24
2018-01-29T05:36:39.368Z,7.25
2018-01-29T05:37:38.746Z,7.25
2018-01-29T05:38:38.834Z,7.25
2018-01-29T05:39:40.112Z,7.24
2018-01-29T05:40:38.790Z,7.25
2018-01-29T05:41:39.839Z,7.25
2018-01-29T05:42:38.765Z,7.25
2018-01-29T05:43:38.751Z,7.24
2018-01-29T05:44:38.878Z,7.24
2018-01-29T05:45:39.012Z,7.24
2018-01-29T05:46:39.111Z,7.25
2018-01-29T05:47:40.905Z,7.24
2018-01-29T05:48:38.917Z,7.24
2018-01-29T05:49:40.767Z,7.23
2018-01-29T05:50:39.696Z,7.23
2018-01-29T05:51:39.744Z,7.23
2018-01-29T05:52:39.735Z,7.23
2018-01-29T05:53:38.766Z,7.23
2018-01-29T05:54:38.894Z,7.22
2018-01-29T05:55:38.864Z,7.23
2018-01-29T05:56:39.672Z,7.24
2018-01-29T05:57:39.099Z,7.24
2018-01-29T05:58:40.236Z,7.21
2018-01-29T06:01:58.436Z,7.23
2018-01-29T06:02:40.780Z,7.24
2018-01-29T06:03:39.338Z,7.24
2018-01-29T06:04:39.583Z,7.24
2018-01-29T06:05:39.291Z,7.23
2018-01-29T06:06:39.403Z,7.25
2018-01-29T06:07:40.862Z,7.22
2018-01-29T06:08:39.396Z,7.22
2018-01-29T06:09:39.394Z,7.23
2018-01-29T06:10:41.450Z,7.23
2018-01-29T06:11:42.455Z,7.23
2018-01-29T06:12:39.452Z,7.23
2018-01-29T06:13:40.088Z,7.22
2018-01-29T06:14:40.843Z,7.22
2018-01-29T06:15:39.224Z,7.23
2018-01-29T06:16:42.821Z,7.22
2018-01-29T06:17:39.405Z,7.21
2018-01-29T06:18:40.772Z,7.22
2018-01-29T06:19:39.343Z,7.2
2018-01-29T06:20:39.570Z,7.23
2018-01-29T06:21:40.736Z,7.21
2018-01-29T06:22:40.455Z,7.23
2018-01-29T06:23:39.764Z,7.23
2018-01-29T06:24:39.789Z,7.22
2018-01-29T06:25:39.459Z,7.22
2018-01-29T06:26:39.981Z,7.21
2018-01-29T06:27:39.372Z,7.21
2018-01-29T06:28:39.876Z,7.2
2018-01-29T06:29:39.314Z,7.21
2018-01-29T06:30:39.308Z,7.21
2018-01-29T06:31:40.373Z,7.2
2018-01-29T06:32:40.682Z,7.21
2018-01-29T06:33:39.355Z,7.2
2018-01-29T06:34:38.398Z,7.2
2018-01-29T06:35:38.836Z,7.2
2018-01-29T06:36:38.289Z,7.2
2018-01-29T06:37:38.394Z,7.21
2018-01-29T06:38:38.702Z,7.2
2018-01-29T06:39:38.361Z,7.22
2018-01-29T06:40:38.340Z,7.21
2018-01-29T06:41:38.264Z,7.21
2018-01-29T06:42:38.431Z,7.22
2018-01-29T06:43:38.458Z,7.21
2018-01-29T06:44:38.263Z,7.21
2018-01-29T06:45:38.303Z,7.21
2018-01-29T06:46:38.327Z,7.2
2018-01-29T06:47:38.341Z,7.21
2018-01-29T06:48:38.232Z,7.2
2018-01-29T06:49:38.293Z,7.21
2018-01-29T06:50:38.344Z,7.22
2018-01-29T06:51:38.414Z,7.23
2018-01-29T06:52:38.386Z,7.21
2018-01-29T06:53:38.388Z,7.21
2018-01-29T06:54:38.958Z,7.21
2018-01-29T06:55:38.380Z,7.21
2018-01-29T06:56:38.451Z,7.22
2018-01-29T06:57:38.412Z,7.22
2018-01-29T06:58:38.475Z,7.23
2018-01-29T06:59:38.327Z,7.22
2018-01-29T07:00:38.402Z,7.22
2018-01-29T07:01:38.442Z,7.22
2018-01-29T07:02:38.477Z,7.22
2018-01-29T07:03:38.831Z,7.23
2018-01-29T07:04:38.562Z,7.23
2018-01-29T07:05:38.588Z,7.23
2018-01-29T07:06:38.711Z,7.22
2018-01-29T07:07:38.741Z,7.24
2018-01-29T07:08:38.729Z,7.23
2018-01-29T07:09:38.631Z,7.24
2018-01-29T07:10:38.560Z,7.24
2018-01-29T07:11:38.643Z,7.24
2018-01-29T07:12:38.627Z,7.25
2018-01-29T07:13:38.680Z,7.24
2018-01-29T07:14:38.590Z,7.23
2018-01-29T07:15:38.545Z,7.23
2018-01-29T07:16:38.588Z,7.25
2018-01-29T07:17:38.663Z,7.25
2018-01-29T07:18:38.713Z,7.26
2018-01-29T07:19:38.671Z,7.26
2018-01-29T07:20:38.724Z,7.25
2018-01-29T07:21:38.613Z,7.26
2018-01-29T07:22:38.881Z,7.27
2018-01-29T07:23:38.870Z,7.27
2018-01-29T07:24:38.847Z,7.27
2018-01-29T07:25:38.883Z,7.27
2018-01-29T07:26:38.736Z,7.27
2018-01-29T07:27:38.635Z,7.26
2018-01-29T07:28:38.659Z,7.27
2018-01-29T07:29:38.502Z,7.27
2018-01-29T07:30:38.703Z,7.27
2018-01-29T07:31:38.651Z,7.29
2018-01-29T07:32:38.598Z,7.29
2018-01-29T07:33:38.922Z,7.28
2018-01-29T07:34:38.761Z,7.29
2018-01-29T07:35:38.721Z,7.3
2018-01-29T07:36:38.841Z,7.31
2018-01-29T07:37:38.738Z,7.3
2018-01-29T07:38:38.704Z,7.31
2018-01-29T07:39:38.808Z,7.31
2018-01-29T07:40:38.844Z,7.31
2018-01-29T07:41:38.631Z,7.3
2018-01-29T07:42:38.946Z,7.31
2018-01-29T07:43:38.793Z,7.3
2018-01-29T07:44:38.926Z,7.3
2018-01-29T07:45:38.882Z,7.3
2018-01-29T07:46:38.902Z,7.29
2018-01-29T07:47:38.808Z,7.3
2018-01-29T07:48:38.958Z,7.3
2018-01-29T07:49:38.874Z,7.28
2018-01-29T07:50:39.032Z,7.3
2018-01-29T07:51:39.027Z,7.3
2018-01-29T07:52:38.930Z,7.3
2018-01-29T07:53:38.918Z,7.29
2018-01-29T07:54:38.896Z,7.31
2018-01-29T07:55:38.994Z,7.3
2018-01-29T07:56:38.940Z,7.3
2018-01-29T07:57:38.905Z,7.3
2018-01-29T07:58:38.899Z,7.31
2018-01-29T07:59:38.825Z,7.32
2018-01-29T08:00:38.843Z,7.31
2018-01-29T08:01:38.841Z,7.32
2018-01-29T08:02:38.838Z,7.3
2018-01-29T08:03:39.036Z,7.3
2018-01-29T08:04:38.939Z,7.31
2018-01-29T08:05:38.958Z,7.32
2018-01-29T08:06:38.885Z,7.32
2018-01-29T08:07:38.984Z,7.34
2018-01-29T08:08:38.884Z,7.32
2018-01-29T08:09:39.001Z,7.32
2018-01-29T08:10:39.043Z,7.32
2018-01-29T08:11:39.164Z,7.34
2018-01-29T08:12:38.936Z,7.34
2018-01-29T08:13:38.898Z,7.34
2018-01-29T08:14:38.907Z,7.33
2018-01-29T08:15:38.906Z,7.33
2018-01-29T08:16:38.906Z,7.33
2018-01-29T08:17:38.848Z,7.34
2018-01-29T08:18:38.945Z,7.32
2018-01-29T08:19:38.871Z,7.35
2018-01-29T08:20:38.931Z,7.34
2018-01-29T08:21:38.961Z,7.35
2018-01-29T08:22:38.984Z,7.34
2018-01-29T08:23:39.042Z,7.36
2018-01-29T08:24:38.863Z,7.35
2018-01-29T08:25:38.898Z,7.35
2018-01-29T08:26:38.905Z,7.35
2018-01-29T08:27:38.980Z,7.37
2018-01-29T08:28:39.163Z,7.37
2018-01-29T08:29:38.822Z,7.38
2018-01-29T08:30:38.923Z,7.39
2018-01-29T08:31:38.950Z,7.37
2018-01-29T08:32:38.956Z,7.38
2018-01-29T08:33:39.137Z,7.37
2018-01-29T08:34:38.923Z,7.39
2018-01-29T08:35:38.923Z,7.4
2018-01-29T08:36:39.188Z,7.4
2018-01-29T08:37:38.896Z,7.41
2018-01-29T08:38:38.990Z,7.39
2018-01-29T08:39:38.947Z,7.39
2018-01-29T08:40:38.945Z,7.38
2018-01-29T08:41:39.007Z,7.39
2018-01-29T08:42:38.936Z,7.37
2018-01-29T08:43:39.078Z,7.38
2018-01-29T08:44:38.910Z,7.38
2018-01-29T08:45:38.958Z,7.36
2018-01-29T08:46:38.926Z,7.36
2018-01-29T08:47:38.913Z,7.37
2018-01-29T08:48:39.068Z,7.38
2018-01-29T08:49:38.905Z,7.38
2018-01-29T08:50:38.967Z,7.38
2018-01-29T08:51:38.951Z,7.39
2018-01-29T08:52:39.436Z,7.37
2018-01-29T08:53:38.989Z,7.37
2018-01-29T08:54:38.986Z,7.36
2018-01-29T08:55:38.939Z,7.39
2018-01-29T08:56:39.014Z,7.37
2018-01-29T08:57:39.071Z,7.35
2018-01-29T08:58:39.095Z,7.36
2018-01-29T08:59:39.023Z,7.36
2018-01-29T09:00:40.029Z,7.37
2018-01-29T09:01:38.897Z,7.35
2018-01-29T09:02:38.956Z,7.35
2018-01-29T09:03:39.048Z,7.35
2018-01-29T09:04:38.948Z,7.37
2018-01-29T09:05:39.384Z,7.35
2018-01-29T09:06:39.242Z,7.35
2018-01-29T09:07:39.125Z,7.34
2018-01-29T09:08:38.920Z,7.33
2018-01-29T09:09:38.995Z,7.33
2018-01-29T09:10:39.227Z,7.33
2018-01-29T09:11:39.050Z,7.33
2018-01-29T09:12:39.104Z,7.32
2018-01-29T09:13:38.961Z,7.33
2018-01-29T09:14:39.039Z,7.32
2018-01-29T09:15:39.008Z,7.31
2018-01-29T09:16:39.147Z,7.32
2018-01-29T09:17:39.076Z,7.32
2018-01-29T09:18:39.100Z,7.32
2018-01-29T09:19:38.964Z,7.32
2018-01-29T09:20:38.947Z,7.32
2018-01-29T09:21:39.081Z,7.33
2018-01-29T09:22:39.097Z,7.33
2018-01-29T09:23:38.976Z,7.34
2018-01-29T09:24:38.915Z,7.33
2018-01-29T09:25:39.116Z,7.33
2018-01-29T09:26:38.938Z,7.32
2018-01-29T09:27:39.090Z,7.32
2018-01-29T09:28:39.026Z,7.33
2018-01-29T09:29:39.118Z,7.34
2018-01-29T09:30:39.059Z,7.33
2018-01-29T09:31:39.116Z,7.33
2018-01-29T09:32:39.085Z,7.34
2018-01-29T09:33:39.187Z,7.33
2018-01-29T09:34:39.031Z,7.34
2018-01-29T09:35:39.047Z,7.34
2018-01-29T09:36:39.091Z,7.34
2018-01-29T09:37:39.078Z,7.35
2018-01-29T09:38:39.503Z,7.36
2018-01-29T09:39:39.116Z,7.36
2018-01-29T09:40:40.029Z,7.36
2018-01-29T09:41:39.392Z,7.35
2018-01-29T09:42:39.502Z,7.36
2018-01-29T09:43:39.294Z,7.35
2018-01-29T09:44:39.648Z,7.34
2018-01-29T09:45:39.268Z,7.35
2018-01-29T09:46:39.082Z,7.36
2018-01-29T09:47:39.011Z,7.36
2018-01-29T09:48:39.042Z,7.36
2018-01-29T09:49:39.158Z,7.37
2018-01-29T09:50:39.050Z,7.38
2018-01-29T09:51:39.618Z,7.38
2018-01-29T09:52:39.108Z,7.38
2018-01-29T09:53:39.411Z,7.37
2018-01-29T09:54:39.149Z,7.37
2018-01-29T09:55:39.055Z,7.38
2018-01-29T09:56:39.499Z,7.36
2018-01-29T09:57:39.551Z,7.41
2018-01-29T09:58:39.253Z,7.38
2018-01-29T09:59:39.031Z,7.37
2018-01-29T10:00:39.089Z,7.38
2018-01-29T10:01:39.313Z,7.39
2018-01-29T10:02:39.065Z,7.39
2018-01-29T10:03:39.323Z,7.39
2018-01-29T10:04:39.047Z,7.38
2018-01-29T10:05:39.003Z,7.39
2018-01-29T10:06:39.171Z,7.39
2018-01-29T10:07:39.050Z,7.39
2018-01-29T10:08:39.080Z,7.41
2018-01-29T10:09:38.899Z,7.38
2018-01-29T10:10:39.025Z,7.38
2018-01-29T10:11:38.841Z,7.37
2018-01-29T10:12:38.997Z,7.38
2018-01-29T10:13:38.967Z,7.38
2018-01-29T10:14:38.901Z,7.38
2018-01-29T10:15:38.991Z,7.37
2018-01-29T10:16:38.970Z,7.38
2018-01-29T10:17:39.053Z,7.35
2018-01-29T10:18:39.042Z,7.37
2018-01-29T10:19:38.999Z,7.35
2018-01-29T10:20:39.145Z,7.36
2018-01-29T10:21:39.051Z,7.36
2018-01-29T10:22:39.046Z,7.38
2018-01-29T10:23:39.128Z,7.38
2018-01-29T10:24:39.076Z,7.38
2018-01-29T10:25:39.038Z,7.37
2018-01-29T10:26:39.006Z,7.37
2018-01-29T10:27:39.115Z,7.37
2018-01-29T10:28:39.006Z,7.38
2018-01-29T10:29:38.965Z,7.39
2018-01-29T10:30:38.897Z,7.39
2018-01-29T10:31:38.869Z,7.39
2018-01-29T10:32:39.111Z,7.39
2018-01-29T10:33:39.043Z,7.38
2018-01-29T10:34:39.077Z,7.37
2018-01-29T10:35:39.174Z,7.39
2018-01-29T10:36:38.998Z,7.38
2018-01-29T10:37:39.017Z,7.37
2018-01-29T10:38:38.957Z,7.38
2018-01-29T10:39:39.105Z,7.39
2018-01-29T10:40:38.887Z,7.4
2018-01-29T10:41:38.979Z,7.38
2018-01-29T10:42:39.217Z,7.4
2018-01-29T10:43:39.094Z,7.4
2018-01-29T10:44:39.114Z,7.4
2018-01-29T10:45:39.109Z,7.4
2018-01-29T10:46:39.135Z,7.38
2018-01-29T10:47:39.208Z,7.4
2018-01-29T10:48:39.058Z,7.39
2018-01-29T10:49:39.518Z,7.4
2018-01-29T10:50:39.194Z,7.4
2018-01-29T10:51:39.010Z,7.37
2018-01-29T10:52:38.971Z,7.39
2018-01-29T10:53:39.136Z,7.38
2018-01-29T10:54:39.066Z,7.38
2018-01-29T10:55:39.136Z,7.39
2018-01-29T10:56:39.006Z,7.39
2018-01-29T11:00:39.440Z,7.39
2018-01-29T11:01:39.054Z,7.39
2018-01-29T11:02:39.177Z,7.39
2018-01-29T11:03:39.433Z,7.39
2018-01-29T11:04:39.272Z,7.4
2018-01-29T11:05:39.859Z,7.39
2018-01-29T11:06:39.159Z,7.38
2018-01-29T11:07:39.296Z,7.38
2018-01-29T11:08:39.236Z,7.38
2018-01-29T11:09:39.433Z,7.37
2018-01-29T11:10:39.606Z,7.37
2018-01-29T11:11:39.315Z,7.38
2018-01-29T11:12:39.089Z,7.39
2018-01-29T11:13:39.332Z,7.36
2018-01-29T11:14:39.490Z,7.35
2018-01-29T11:15:39.291Z,7.36
2018-01-29T11:16:39.328Z,7.37
2018-01-29T11:17:39.284Z,7.37
2018-01-29T11:18:39.243Z,7.38
2018-01-29T11:19:39.352Z,7.36
2018-01-29T11:20:39.191Z,7.36
2018-01-29T11:21:39.256Z,7.38
2018-01-29T11:22:39.212Z,7.39
2018-01-29T11:23:39.252Z,7.4
2018-01-29T11:24:39.354Z,7.38
2018-01-29T11:25:39.190Z,7.37
2018-01-29T11:26:39.265Z,7.37
2018-01-29T11:27:39.462Z,7.36
2018-01-29T11:28:39.211Z,7.34
2018-01-29T11:29:39.409Z,7.35
2018-01-29T11:30:39.234Z,7.36
2018-01-29T11:31:39.409Z,7.36
2018-01-29T11:32:39.311Z,7.35
2018-01-29T11:33:39.515Z,7.36
2018-01-29T11:34:39.546Z,7.4
2018-01-29T11:35:39.259Z,7.38
2018-01-29T11:36:39.277Z,7.38
2018-01-29T11:37:39.227Z,7.34
2018-01-29T11:38:39.293Z,7.38
2018-01-29T11:39:39.318Z,7.35
2018-01-29T11:40:39.228Z,7.37
2018-01-29T11:41:39.258Z,7.36
2018-01-29T11:42:39.318Z,7.33
2018-01-29T11:43:39.410Z,7.33
2018-01-29T11:44:39.324Z,7.34
2018-01-29T11:45:39.316Z,7.34
2018-01-29T11:46:39.394Z,7.34
2018-01-29T11:47:39.445Z,7.32
2018-01-29T11:48:39.525Z,7.33
2018-01-29T11:49:39.533Z,7.34
2018-01-29T11:50:39.254Z,7.36
2018-01-29T11:51:39.408Z,7.35
2018-01-29T11:52:39.523Z,7.37
2018-01-29T11:53:39.362Z,7.37
2018-01-29T11:54:39.496Z,7.34
2018-01-29T11:55:39.222Z,7.35
2018-01-29T11:56:39.250Z,7.35
2018-01-29T11:57:39.209Z,7.35
2018-01-29T11:58:39.388Z,7.34
2018-01-29T12:00:39.190Z,7.37
2018-01-29T12:01:39.208Z,7.36
2018-01-29T12:02:39.386Z,7.37
2018-01-29T12:03:40.052Z,7.38
2018-01-29T12:04:38.530Z,7.37
2018-01-29T12:05:38.602Z,7.37
2018-01-29T12:06:39.008Z,7.39
2018-01-29T12:07:38.528Z,7.38
2018-01-29T12:08:38.611Z,7.38
2018-01-29T12:09:38.632Z,7.36
2018-01-29T12:10:38.690Z,7.37
2018-01-29T12:11:38.592Z,7.38
2018-01-29T12:12:38.915Z,7.36
2018-01-29T12:13:38.514Z,7.36
2018-01-29T12:14:38.522Z,7.37
2018-01-29T12:15:38.749Z,7.38
2018-01-29T12:16:38.574Z,7.4
2018-01-29T12:17:38.726Z,7.39
2018-01-29T12:18:38.745Z,7.39
2018-01-29T12:19:38.577Z,7.4
2018-01-29T12:20:38.673Z,7.41
2018-01-29T12:21:38.664Z,7.38
2018-01-29T12:22:38.618Z,7.41
2018-01-29T12:23:38.625Z,7.41
2018-01-29T12:24:38.664Z,7.41
2018-01-29T12:25:38.624Z,7.43
2018-01-29T12:26:38.656Z,7.42
2018-01-29T12:27:38.673Z,7.41
2018-01-29T12:28:38.644Z,7.42
2018-01-29T12:29:38.536Z,7.41
2018-01-29T12:30:38.635Z,7.42
2018-01-29T12:31:38.927Z,7.41
2018-01-29T12:32:38.606Z,7.44
2018-01-29T12:33:39.164Z,7.43
2018-01-29T12:34:38.848Z,7.43
2018-01-29T12:35:38.823Z,7.41
2018-01-29T12:36:38.760Z,7.43
2018-01-29T12:37:38.800Z,7.43
2018-01-29T12:38:38.668Z,7.45
2018-01-29T12:39:38.767Z,7.45
2018-01-29T12:40:38.739Z,7.44
2018-01-29T12:41:38.689Z,7.43
2018-01-29T12:42:38.730Z,7.45
2018-01-29T12:43:38.760Z,7.46
2018-01-29T12:44:38.894Z,7.47
2018-01-29T12:45:38.748Z,7.47
2018-01-29T12:46:39.000Z,7.5
2018-01-29T12:47:39.017Z,7.51
2018-01-29T12:48:38.856Z,7.49
2018-01-29T12:49:38.973Z,7.48
2018-01-29T12:50:38.824Z,7.49
2018-01-29T12:51:39.240Z,7.49
2018-01-29T12:52:38.955Z,7.49
2018-01-29T12:53:38.892Z,7.49
2018-01-29T12:54:39.005Z,7.48
2018-01-29T12:55:38.813Z,7.47
2018-01-29T12:56:38.749Z,7.49
2018-01-29T12:57:38.698Z,7.48
2018-01-29T12:58:38.765Z,7.47
2018-01-29T12:59:38.975Z,7.49
2018-01-29T13:00:38.809Z,7.49
2018-01-29T13:01:38.721Z,7.49
2018-01-29T13:02:38.797Z,7.5
2018-01-29T13:03:38.969Z,7.51
2018-01-29T13:04:39.122Z,7.51
2018-01-29T13:05:38.949Z,7.49
2018-01-29T13:06:38.836Z,7.48
2018-01-29T13:07:38.974Z,7.49
2018-01-29T13:08:38.981Z,7.49
2018-01-29T13:09:39.146Z,7.48
2018-01-29T13:10:39.144Z,7.49
2018-01-29T13:11:38.905Z,7.47
2018-01-29T13:12:38.815Z,7.49
2018-01-29T13:13:38.812Z,7.5
2018-01-29T13:14:38.846Z,7.5
2018-01-29T13:15:39.222Z,7.5
2018-01-29T13:16:38.886Z,7.51
2018-01-29T13:17:39.020Z,7.51
2018-01-29T13:18:38.832Z,7.52
2018-01-29T13:19:38.805Z,7.51
2018-01-29T13:20:39.133Z,7.52
2018-01-29T13:21:38.975Z,7.52
2018-01-29T13:22:38.924Z,7.52
2018-01-29T13:23:38.938Z,7.5
2018-01-29T13:24:38.932Z,7.51
2018-01-29T13:25:39.010Z,7.51
2018-01-29T13:26:38.832Z,7.51
2018-01-29T13:27:38.892Z,7.51
2018-01-29T13:28:38.785Z,7.52
2018-01-29T13:29:39.127Z,7.52